Time,TemperatureF,DewpointF,PressureIn,WindDirection,WindDirectionDegrees,WindSpeedMPH,WindSpeedGustMPH,Humidity,HourlyPrecipIn,Conditions,Clouds,dailyrainin,SoftwareType,DateUTC
2013-09-23 00:05:00,59.0,52.5,30.02,SSW,207,2.0,4.9,79,0.00,,,0.00,meteobridge,2013-09-23 07:05:00,
2013-09-23 00:11:00,59.0,52.5,30.02,SW,236,2.9,6.0,79,0.00,,,0.00,meteobridge,2013-09-23 07:11:00,
2013-09-23 00:17:00,59.2,52.7,30.02,SW,236,2.9,2.9,79,0.00,,,0.00,meteobridge,2013-09-23 07:17:00,
2013-09-23 00:23:00,59.2,52.7,30.02,SW,219,2.0,4.0,79,0.00,,,0.00,meteobridge,2013-09-23 07:23:00,
2013-09-23 00:29:00,59.4,52.9,30.02,SW,224,4.0,4.0,79,0.00,,,0.00,meteobridge,2013-09-23 07:29:00,
2013-09-23 00:35:00,59.2,52.7,30.02,SSW,203,2.0,4.0,79,0.00,,,0.00,meteobridge,2013-09-23 07:35:00,
2013-09-23 00:41:00,59.0,52.9,30.02,SW,214,2.9,4.9,80,0.00,,,0.00,meteobridge,2013-09-23 07:41:00,
2013-09-23 00:47:00,58.8,52.7,30.02,SSW,212,0.9,2.9,80,0.00,,,0.00,meteobridge,2013-09-23 07:47:00,
2013-09-23 00:53:00,59.0,52.9,30.02,SW,226,2.9,2.9,80,0.00,,,0.00,meteobridge,2013-09-23 07:53:00,
2013-09-23 00:59:00,58.8,53.1,30.02,SW,228,2.0,4.0,81,0.00,,,0.00,meteobridge,2013-09-23 07:59:00,
2013-09-23 01:06:00,58.6,53.2,30.02,SW,226,0.9,4.0,82,0.00,,,0.00,meteobridge,2013-09-23 08:06:00,
2013-09-23 01:12:00,58.6,53.2,30.02,SSE,147,0.0,2.9,82,0.00,,,0.00,meteobridge,2013-09-23 08:12:00,
2013-09-23 01:18:00,58.6,53.4,30.02,SW,217,0.0,2.9,83,0.00,,,0.00,meteobridge,2013-09-23 08:18:00,
2013-09-23 01:25:00,58.5,53.2,30.02,South,184,0.0,0.9,83,0.00,,,0.00,meteobridge,2013-09-23 08:25:00,
2013-09-23 01:31:00,58.3,53.4,30.02,SSW,212,0.9,2.0,84,0.00,,,0.00,meteobridge,2013-09-23 08:31:00,
2013-09-23 01:37:00,57.9,53.1,30.02,West,263,0.9,0.9,84,0.00,,,0.00,meteobridge,2013-09-23 08:37:00,
2013-09-23 01:43:00,57.9,53.1,30.02,West,261,0.0,0.9,84,0.00,,,0.00,meteobridge,2013-09-23 08:43:00,
2013-09-23 01:50:00,57.7,53.2,30.02,West,261,0.0,0.0,85,0.00,,,0.00,meteobridge,2013-09-23 08:50:00,
2013-09-23 01:56:00,57.6,53.4,30.02,SE,137,0.0,0.9,86,0.00,,,0.00,meteobridge,2013-09-23 08:56:00,
2013-09-23 02:02:00,57.4,53.2,30.02,SE,137,0.0,0.9,86,0.00,,,0.00,meteobridge,2013-09-23 09:02:00,
2013-09-23 02:08:00,57.0,53.2,30.02,SE,124,0.0,0.9,87,0.00,,,0.00,meteobridge,2013-09-23 09:08:00,
2013-09-23 02:15:00,56.8,53.6,30.02,South,176,0.0,0.0,89,0.00,,,0.00,meteobridge,2013-09-23 09:15:00,
2013-09-23 02:21:00,56.7,53.8,30.02,ESE,110,0.0,0.9,90,0.00,,,0.00,meteobridge,2013-09-23 09:21:00,
2013-09-23 02:27:00,56.5,53.6,30.02,ESE,110,0.0,0.9,90,0.00,,,0.00,meteobridge,2013-09-23 09:27:00,
2013-09-23 02:33:00,56.3,53.4,30.02,SE,127,0.0,0.9,90,0.00,,,0.00,meteobridge,2013-09-23 09:33:00,
2013-09-23 02:39:00,56.1,53.6,30.02,SE,127,0.0,0.0,91,0.00,,,0.00,meteobridge,2013-09-23 09:39:00,
2013-09-23 02:46:00,55.8,52.9,30.02,SE,127,0.0,0.0,90,0.00,,,0.00,meteobridge,2013-09-23 09:46:00,
2013-09-23 02:52:00,55.6,53.2,30.01,SE,127,0.0,0.0,92,0.00,,,0.00,meteobridge,2013-09-23 09:52:00,
2013-09-23 02:58:00,55.4,53.1,30.01,SE,127,0.0,0.0,92,0.00,,,0.00,meteobridge,2013-09-23 09:58:00,
2013-09-23 03:04:00,55.2,52.9,30.01,SE,127,0.0,0.0,92,0.00,,,0.00,meteobridge,2013-09-23 10:04:00,
2013-09-23 03:10:00,55.0,52.7,30.01,SE,127,0.0,0.0,92,0.00,,,0.00,meteobridge,2013-09-23 10:10:00,
2013-09-23 03:17:00,54.7,52.3,30.01,SE,127,0.0,0.0,92,0.00,,,0.00,meteobridge,2013-09-23 10:17:00,
2013-09-23 03:23:00,54.3,52.0,30.01,SE,127,0.0,0.0,92,0.00,,,0.00,meteobridge,2013-09-23 10:23:00,
2013-09-23 03:29:00,54.1,52.2,30.01,SE,127,0.0,0.0,93,0.00,,,0.00,meteobridge,2013-09-23 10:29:00,
2013-09-23 03:35:00,53.6,51.3,30.01,SE,127,0.0,0.0,92,0.00,,,0.00,meteobridge,2013-09-23 10:35:00,
2013-09-23 03:41:00,53.1,50.7,30.01,SE,127,0.0,0.0,92,0.00,,,0.00,meteobridge,2013-09-23 10:41:00,
2013-09-23 03:48:00,53.1,51.1,30.01,SE,127,0.0,0.0,93,0.00,,,0.00,meteobridge,2013-09-23 10:48:00,
2013-09-23 03:54:00,53.1,51.4,30.01,SE,127,0.0,0.0,94,0.00,,,0.00,meteobridge,2013-09-23 10:54:00,
2013-09-23 04:00:00,53.1,51.4,30.01,SE,127,0.0,0.0,94,0.00,,,0.00,meteobridge,2013-09-23 11:00:00,
2013-09-23 04:06:00,52.9,51.3,30.01,SE,127,0.0,0.0,94,0.00,,,0.00,meteobridge,2013-09-23 11:06:00,
2013-09-23 04:12:00,52.9,51.3,30.01,SE,127,0.0,0.0,94,0.00,,,0.00,meteobridge,2013-09-23 11:12:00,
2013-09-23 04:19:00,52.9,51.3,30.01,SE,127,0.0,0.0,94,0.00,,,0.00,meteobridge,2013-09-23 11:19:00,
2013-09-23 04:25:00,52.9,51.3,30.01,SE,127,0.0,0.0,94,0.00,,,0.00,meteobridge,2013-09-23 11:25:00,
2013-09-23 04:31:00,52.5,50.9,30.01,SE,127,0.0,0.0,94,0.00,,,0.00,meteobridge,2013-09-23 11:31:00,
2013-09-23 04:37:00,52.3,50.7,30.01,SE,127,0.0,0.0,94,0.00,,,0.00,meteobridge,2013-09-23 11:37:00,
2013-09-23 04:44:00,52.2,50.5,30.01,SE,127,0.0,0.0,94,0.00,,,0.00,meteobridge,2013-09-23 11:44:00,
2013-09-23 04:50:00,52.2,50.5,30.01,SE,127,0.0,0.0,94,0.00,,,0.00,meteobridge,2013-09-23 11:50:00,
2013-09-23 04:56:00,52.0,50.4,30.01,SE,127,0.0,0.0,94,0.00,,,0.00,meteobridge,2013-09-23 11:56:00,
2013-09-23 05:02:00,51.6,50.2,30.01,SE,127,0.0,0.0,95,0.00,,,0.00,meteobridge,2013-09-23 12:02:00,
2013-09-23 05:08:00,51.6,50.2,30.01,SE,127,0.0,0.9,95,0.00,,,0.00,meteobridge,2013-09-23 12:08:00,
2013-09-23 05:15:00,52.0,50.5,30.01,SE,127,0.0,0.9,95,0.00,,,0.00,meteobridge,2013-09-23 12:15:00,
2013-09-23 05:21:00,52.0,50.4,30.01,SE,127,0.0,0.0,94,0.00,,,0.00,meteobridge,2013-09-23 12:21:00,
2013-09-23 05:27:00,51.6,50.2,30.01,SE,127,0.0,0.0,95,0.00,,,0.00,meteobridge,2013-09-23 12:27:00,
2013-09-23 05:33:00,51.6,50.2,30.01,SE,127,0.0,0.0,95,0.00,,,0.00,meteobridge,2013-09-23 12:33:00,
2013-09-23 05:39:00,51.6,50.2,30.01,NNW,338,0.0,0.9,95,0.00,,,0.00,meteobridge,2013-09-23 12:39:00,
2013-09-23 05:46:00,51.6,50.0,30.01,NNW,338,0.0,0.9,94,0.00,,,0.00,meteobridge,2013-09-23 12:46:00,
2013-09-23 05:52:00,51.4,49.8,30.02,NNW,339,0.0,0.0,94,0.00,,,0.00,meteobridge,2013-09-23 12:52:00,
2013-09-23 05:58:00,51.4,49.8,30.02,NNW,339,0.0,0.0,94,0.00,,,0.00,meteobridge,2013-09-23 12:58:00,
2013-09-23 06:04:00,51.3,49.6,30.02,NNW,339,0.0,0.0,94,0.00,,,0.00,meteobridge,2013-09-23 13:04:00,
2013-09-23 06:10:00,50.9,49.3,30.02,NNW,339,0.0,0.0,94,0.00,,,0.00,meteobridge,2013-09-23 13:10:00,
2013-09-23 06:16:00,50.9,49.5,30.02,NNW,338,0.0,0.0,95,0.00,,,0.00,meteobridge,2013-09-23 13:16:00,
2013-09-23 06:23:00,51.1,49.6,30.02,NNW,339,0.0,0.0,95,0.00,,,0.00,meteobridge,2013-09-23 13:23:00,
2013-09-23 06:29:00,51.1,49.6,30.02,NNW,338,0.0,0.0,95,0.00,,,0.00,meteobridge,2013-09-23 13:29:00,
2013-09-23 06:35:00,50.7,49.3,30.02,NNW,339,0.0,0.0,95,0.00,,,0.00,meteobridge,2013-09-23 13:35:00,
2013-09-23 06:41:00,50.5,49.1,30.02,NNW,338,0.0,0.0,95,0.00,,,0.00,meteobridge,2013-09-23 13:41:00,
2013-09-23 06:48:00,50.4,48.9,30.03,NNW,338,0.0,0.0,95,0.00,,,0.00,meteobridge,2013-09-23 13:48:00,
2013-09-23 06:54:00,50.4,48.9,30.02,NNW,339,0.0,0.0,95,0.00,,,0.00,meteobridge,2013-09-23 13:54:00,
2013-09-23 07:00:00,50.4,49.3,30.03,NNW,339,0.0,0.0,96,0.00,,,0.00,meteobridge,2013-09-23 14:00:00,
2013-09-23 07:06:00,50.5,49.5,30.03,NNW,339,0.0,0.0,96,0.00,,,0.00,meteobridge,2013-09-23 14:06:00,
2013-09-23 07:12:00,50.5,49.1,30.03,NNW,339,0.0,0.0,95,0.00,,,0.00,meteobridge,2013-09-23 14:12:00,
2013-09-23 07:19:00,51.3,49.8,30.03,NNW,339,0.0,0.0,95,0.00,,,0.00,meteobridge,2013-09-23 14:19:00,
2013-09-23 07:25:00,52.0,50.4,30.03,NNW,339,0.0,0.0,94,0.00,,,0.00,meteobridge,2013-09-23 14:25:00,
2013-09-23 07:31:00,53.1,51.4,30.03,NNW,339,0.0,0.0,94,0.00,,,0.00,meteobridge,2013-09-23 14:31:00,
2013-09-23 07:37:00,54.0,51.4,30.03,NNW,339,0.0,0.0,91,0.00,,,0.00,meteobridge,2013-09-23 14:37:00,
2013-09-23 07:43:00,54.3,51.4,30.03,NNW,339,0.0,0.0,90,0.00,,,0.00,meteobridge,2013-09-23 14:43:00,
2013-09-23 07:49:00,55.4,52.0,30.03,NNW,338,0.0,0.0,88,0.00,,,0.00,meteobridge,2013-09-23 14:49:00,
2013-09-23 07:55:00,56.7,52.5,30.04,NNW,339,0.0,0.0,86,0.00,,,0.00,meteobridge,2013-09-23 14:55:00,
2013-09-23 08:01:00,57.9,53.1,30.04,NNW,339,0.0,0.0,84,0.00,,,0.00,meteobridge,2013-09-23 15:01:00,
2013-09-23 08:07:00,59.2,54.0,30.04,NNW,338,0.0,0.0,83,0.00,,,0.00,meteobridge,2013-09-23 15:07:00,
2013-09-23 08:14:00,59.0,53.6,30.04,NNW,338,0.0,0.0,82,0.00,,,0.00,meteobridge,2013-09-23 15:14:00,
2013-09-23 08:20:00,59.4,53.2,30.04,East,79,0.9,2.0,80,0.00,,,0.00,meteobridge,2013-09-23 15:20:00,
2013-09-23 08:26:00,59.4,53.8,30.04,ENE,69,0.9,2.0,82,0.00,,,0.00,meteobridge,2013-09-23 15:26:00,
2013-09-23 08:32:00,59.4,53.2,30.04,ENE,75,0.0,2.0,80,0.00,,,0.00,meteobridge,2013-09-23 15:32:00,
2013-09-23 08:38:00,60.1,54.0,30.04,WNW,301,0.0,0.9,80,0.00,,,0.00,meteobridge,2013-09-23 15:38:00,
2013-09-23 08:44:00,59.9,53.8,30.04,NNW,334,0.0,0.9,80,0.00,,,0.00,meteobridge,2013-09-23 15:44:00,
2013-09-23 08:51:00,60.1,53.6,30.04,North,356,0.0,0.9,79,0.00,,,0.00,meteobridge,2013-09-23 15:51:00,
2013-09-23 08:57:00,60.3,53.8,30.04,East,81,0.0,0.9,79,0.00,,,0.00,meteobridge,2013-09-23 15:57:00,
2013-09-23 09:03:00,61.2,54.0,30.04,East,95,0.0,0.9,77,0.00,,,0.00,meteobridge,2013-09-23 16:03:00,
2013-09-23 09:10:00,63.0,55.2,30.04,ESE,122,0.9,0.9,76,0.00,,,0.00,meteobridge,2013-09-23 16:10:00,
2013-09-23 09:16:00,63.3,54.5,30.04,East,101,0.0,2.0,73,0.00,,,0.00,meteobridge,2013-09-23 16:16:00,
2013-09-23 09:22:00,64.0,55.2,30.04,ESE,103,0.0,0.0,73,0.00,,,0.00,meteobridge,2013-09-23 16:22:00,
2013-09-23 09:28:00,63.9,55.0,30.05,NNW,343,0.0,0.9,73,0.00,,,0.00,meteobridge,2013-09-23 16:28:00,
2013-09-23 09:34:00,64.4,55.2,30.05,ENE,74,0.0,0.9,72,0.00,,,0.00,meteobridge,2013-09-23 16:34:00,
2013-09-23 09:41:00,64.9,54.1,30.04,ENE,71,0.0,0.9,68,0.00,,,0.00,meteobridge,2013-09-23 16:41:00,
2013-09-23 09:47:00,65.1,54.7,30.04,NE,47,0.0,0.9,69,0.00,,,0.00,meteobridge,2013-09-23 16:47:00,
2013-09-23 09:53:00,66.4,54.3,30.05,SSE,150,0.0,0.9,65,0.00,,,0.00,meteobridge,2013-09-23 16:53:00,
2013-09-23 09:59:00,66.7,54.1,30.05,WNW,284,0.0,0.0,64,0.00,,,0.00,meteobridge,2013-09-23 16:59:00,
2013-09-23 10:05:00,67.6,53.8,30.04,WSW,248,0.9,0.9,61,0.00,,,0.00,meteobridge,2013-09-23 17:05:00,
2013-09-23 10:12:00,67.1,54.1,30.04,WNW,297,0.0,0.9,63,0.00,,,0.00,meteobridge,2013-09-23 17:12:00,
2013-09-23 10:18:00,68.4,54.9,30.04,SSW,204,0.0,0.9,62,0.00,,,0.00,meteobridge,2013-09-23 17:18:00,
2013-09-23 10:24:00,69.6,53.8,30.04,North,357,0.0,2.0,57,0.00,,,0.00,meteobridge,2013-09-23 17:24:00,
2013-09-23 10:30:00,68.7,53.8,30.04,NW,321,0.0,4.0,59,0.00,,,0.00,meteobridge,2013-09-23 17:30:00,
2013-09-23 10:36:00,69.3,53.8,30.04,North,10,0.9,2.9,58,0.00,,,0.00,meteobridge,2013-09-23 17:36:00,
2013-09-23 10:43:00,69.4,54.0,30.04,West,266,0.0,0.9,58,0.00,,,0.00,meteobridge,2013-09-23 17:43:00,
2013-09-23 10:49:00,69.6,53.2,30.04,NNW,338,0.9,2.9,56,0.00,,,0.00,meteobridge,2013-09-23 17:49:00,
2013-09-23 10:55:00,69.8,54.3,30.03,West,260,0.9,2.0,58,0.00,,,0.00,meteobridge,2013-09-23 17:55:00,
2013-09-23 11:01:00,70.7,54.3,30.03,SE,125,0.0,2.0,56,0.00,,,0.00,meteobridge,2013-09-23 18:01:00,
2013-09-23 11:07:00,72.0,54.0,30.03,SSW,198,0.0,0.9,53,0.00,,,0.00,meteobridge,2013-09-23 18:07:00,
2013-09-23 11:13:00,72.7,54.0,30.03,ENE,75,0.9,2.9,52,0.00,,,0.00,meteobridge,2013-09-23 18:13:00,
2013-09-23 11:19:00,72.9,54.7,30.03,SE,136,2.0,2.0,53,0.00,,,0.00,meteobridge,2013-09-23 18:19:00,
2013-09-23 11:26:00,73.9,53.6,30.03,WNW,288,0.9,2.9,49,0.00,,,0.00,meteobridge,2013-09-23 18:26:00,
2013-09-23 11:32:00,74.5,54.1,30.03,East,93,0.0,2.9,49,0.00,,,0.00,meteobridge,2013-09-23 18:32:00,
2013-09-23 11:38:00,74.7,53.6,30.03,WNW,283,0.0,2.9,48,0.00,,,0.00,meteobridge,2013-09-23 18:38:00,
2013-09-23 11:44:00,75.0,54.5,30.03,WSW,246,0.0,2.0,49,0.00,,,0.00,meteobridge,2013-09-23 18:44:00,
2013-09-23 11:50:00,75.0,54.5,30.02,West,280,0.9,2.9,49,0.00,,,0.00,meteobridge,2013-09-23 18:50:00,
2013-09-23 11:57:00,75.6,54.5,30.02,East,84,0.9,2.0,48,0.00,,,0.00,meteobridge,2013-09-23 18:57:00,
2013-09-23 12:03:00,75.2,54.1,30.02,NNE,17,0.0,4.0,48,0.00,,,0.00,meteobridge,2013-09-23 19:03:00,
2013-09-23 12:09:00,75.6,55.0,30.02,NE,40,0.9,2.9,49,0.00,,,0.00,meteobridge,2013-09-23 19:09:00,
2013-09-23 12:15:00,76.1,55.0,30.02,ESE,119,2.0,2.9,48,0.00,,,0.00,meteobridge,2013-09-23 19:15:00,
2013-09-23 12:22:00,76.6,55.4,30.01,WNW,293,4.0,4.0,48,0.00,,,0.00,meteobridge,2013-09-23 19:22:00,
2013-09-23 12:28:00,76.3,54.5,30.01,West,263,0.9,0.9,47,0.00,,,0.00,meteobridge,2013-09-23 19:28:00,
2013-09-23 12:34:00,77.2,54.9,30.01,SW,233,0.0,2.9,46,0.00,,,0.00,meteobridge,2013-09-23 19:34:00,
2013-09-23 12:41:00,77.5,54.5,30.01,WSW,238,0.0,0.9,45,0.00,,,0.00,meteobridge,2013-09-23 19:41:00,
2013-09-23 12:47:00,78.3,55.2,30.01,WNW,296,4.0,4.9,45,0.00,,,0.00,meteobridge,2013-09-23 19:47:00,
2013-09-23 12:53:00,77.9,54.9,30.00,WNW,283,4.0,4.9,45,0.00,,,0.00,meteobridge,2013-09-23 19:53:00,
2013-09-23 12:59:00,78.1,54.3,30.00,WNW,293,2.9,4.9,44,0.00,,,0.00,meteobridge,2013-09-23 19:59:00,
2013-09-23 13:05:00,79.0,55.2,30.00,NW,304,2.0,2.0,44,0.00,,,0.00,meteobridge,2013-09-23 20:05:00,
2013-09-23 13:11:00,79.0,55.2,30.00,WNW,289,2.9,6.0,44,0.00,,,0.00,meteobridge,2013-09-23 20:11:00,
2013-09-23 13:17:00,78.6,54.3,29.99,West,271,0.9,4.9,43,0.00,,,0.00,meteobridge,2013-09-23 20:17:00,
2013-09-23 13:23:00,79.2,54.1,29.99,WNW,287,2.0,2.0,42,0.00,,,0.00,meteobridge,2013-09-23 20:23:00,
2013-09-23 13:29:00,78.6,54.3,29.99,West,274,0.9,2.9,43,0.00,,,0.00,meteobridge,2013-09-23 20:29:00,
2013-09-23 13:35:00,79.5,55.0,29.99,NW,314,4.0,4.9,43,0.00,,,0.00,meteobridge,2013-09-23 20:35:00,
2013-09-23 13:41:00,79.5,53.8,29.98,NE,41,0.0,4.0,41,0.00,,,0.00,meteobridge,2013-09-23 20:41:00,
2013-09-23 13:47:00,79.2,53.4,29.98,East,92,2.0,4.0,41,0.00,,,0.00,meteobridge,2013-09-23 20:47:00,
2013-09-23 13:53:00,79.3,54.3,29.98,NW,315,4.0,4.9,42,0.00,,,0.00,meteobridge,2013-09-23 20:53:00,
2013-09-23 13:59:00,80.2,54.3,29.98,WNW,289,0.9,2.0,41,0.00,,,0.00,meteobridge,2013-09-23 20:59:00,
2013-09-23 14:05:00,80.2,53.8,29.98,North,6,2.0,6.0,40,0.00,,,0.00,meteobridge,2013-09-23 21:05:00,
2013-09-23 14:11:00,80.2,53.1,29.97,East,96,0.9,4.0,39,0.00,,,0.00,meteobridge,2013-09-23 21:11:00,
2013-09-23 14:17:00,80.8,53.6,29.97,WSW,256,2.9,2.9,39,0.00,,,0.00,meteobridge,2013-09-23 21:17:00,
2013-09-23 14:23:00,81.3,53.2,29.97,NW,304,0.9,2.9,38,0.00,,,0.00,meteobridge,2013-09-23 21:23:00,
2013-09-23 14:30:00,81.7,52.9,29.97,NW,323,2.9,4.9,37,0.00,,,0.00,meteobridge,2013-09-23 21:30:00,
2013-09-23 14:36:00,81.1,53.1,29.96,East,99,0.9,0.9,38,0.00,,,0.00,meteobridge,2013-09-23 21:36:00,
2013-09-23 14:42:00,81.7,53.6,29.96,NE,47,2.0,2.0,38,0.00,,,0.00,meteobridge,2013-09-23 21:42:00,
2013-09-23 14:48:00,82.0,53.2,29.96,NE,56,0.0,4.0,37,0.00,,,0.00,meteobridge,2013-09-23 21:48:00,
2013-09-23 14:54:00,82.9,54.0,29.96,WNW,285,0.9,2.9,37,0.00,,,0.00,meteobridge,2013-09-23 21:54:00,
2013-09-23 15:00:00,83.1,53.4,29.96,NNE,25,0.9,4.0,36,0.00,,,0.00,meteobridge,2013-09-23 22:00:00,
2013-09-23 15:06:00,83.7,52.3,29.96,NNE,33,4.0,4.0,34,0.00,,,0.00,meteobridge,2013-09-23 22:06:00,
2013-09-23 15:12:00,83.1,54.9,29.95,West,281,0.9,2.9,38,0.00,,,0.00,meteobridge,2013-09-23 22:12:00,
2013-09-23 15:18:00,82.9,56.1,29.95,West,281,4.0,6.9,40,0.00,,,0.00,meteobridge,2013-09-23 22:18:00,
2013-09-23 15:24:00,82.2,55.6,29.95,SW,235,8.1,10.1,40,0.00,,,0.00,meteobridge,2013-09-23 22:24:00,
2013-09-23 15:30:00,82.9,56.8,29.95,West,259,2.0,4.0,41,0.00,,,0.00,meteobridge,2013-09-23 22:30:00,
2013-09-23 15:36:00,82.2,55.6,29.95,SSW,212,4.9,8.1,40,0.00,,,0.00,meteobridge,2013-09-23 22:36:00,
2013-09-23 15:42:00,82.2,55.6,29.95,SW,219,6.0,8.1,40,0.00,,,0.00,meteobridge,2013-09-23 22:42:00,
2013-09-23 15:48:00,82.2,54.9,29.94,West,276,4.0,6.9,39,0.00,,,0.00,meteobridge,2013-09-23 22:48:00,
2013-09-23 15:54:00,82.0,54.7,29.94,West,264,4.9,6.0,39,0.00,,,0.00,meteobridge,2013-09-23 22:54:00,
2013-09-23 16:00:00,82.0,55.4,29.94,WSW,244,2.0,6.0,40,0.00,,,0.00,meteobridge,2013-09-23 23:00:00,
2013-09-23 16:06:00,82.2,54.9,29.94,SW,235,8.1,8.9,39,0.00,,,0.00,meteobridge,2013-09-23 23:06:00,
2013-09-23 16:12:00,81.7,54.3,29.94,SSW,196,6.0,10.1,39,0.00,,,0.00,meteobridge,2013-09-23 23:12:00,
2013-09-23 16:18:00,81.7,54.3,29.94,SW,215,4.9,6.9,39,0.00,,,0.00,meteobridge,2013-09-23 23:18:00,
2013-09-23 16:24:00,81.1,53.8,29.94,WSW,238,12.1,13.0,39,0.00,,,0.00,meteobridge,2013-09-23 23:24:00,
2013-09-23 16:30:00,80.8,54.9,29.94,SW,217,6.0,12.1,41,0.00,,,0.00,meteobridge,2013-09-23 23:30:00,
2013-09-23 16:36:00,80.8,54.9,29.94,SW,229,13.0,13.0,41,0.00,,,0.00,meteobridge,2013-09-23 23:36:00,
2013-09-23 16:42:00,80.8,56.1,29.93,SW,231,4.0,10.1,43,0.00,,,0.00,meteobridge,2013-09-23 23:42:00,
2013-09-23 16:48:00,80.8,56.8,29.93,SSW,207,4.0,10.1,44,0.00,,,0.00,meteobridge,2013-09-23 23:48:00,
2013-09-23 16:55:00,80.2,57.6,29.93,West,268,4.0,10.1,46,0.00,,,0.00,meteobridge,2013-09-23 23:55:00,
2013-09-23 17:01:00,79.9,57.9,29.93,WSW,251,10.1,12.1,47,0.00,,,0.00,meteobridge,2013-09-24 00:01:00,
2013-09-23 17:07:00,79.2,57.7,29.93,WSW,258,12.1,12.1,48,0.00,,,0.00,meteobridge,2013-09-24 00:07:00,
2013-09-23 17:13:00,78.4,58.3,29.93,SSW,205,4.9,14.1,50,0.00,,,0.00,meteobridge,2013-09-24 00:13:00,
2013-09-23 17:19:00,78.3,58.1,29.93,SW,226,6.9,12.1,50,0.00,,,0.00,meteobridge,2013-09-24 00:19:00,
2013-09-23 17:25:00,78.3,58.1,29.94,South,190,6.9,11.0,50,0.00,,,0.00,meteobridge,2013-09-24 00:25:00,
2013-09-23 17:31:00,78.1,58.5,29.93,SSW,212,6.9,13.0,51,0.00,,,0.00,meteobridge,2013-09-24 00:31:00,
2013-09-23 17:37:00,77.7,58.1,29.93,SW,234,8.1,14.1,51,0.00,,,0.00,meteobridge,2013-09-24 00:37:00,
2013-09-23 17:43:00,77.4,58.3,29.93,SW,217,4.9,12.1,52,0.00,,,0.00,meteobridge,2013-09-24 00:43:00,
2013-09-23 17:49:00,77.2,58.3,29.93,West,269,6.0,15.0,52,0.00,,,0.00,meteobridge,2013-09-24 00:49:00,
2013-09-23 17:55:00,77.2,58.3,29.93,West,268,12.1,14.1,52,0.00,,,0.00,meteobridge,2013-09-24 00:55:00,
2013-09-23 18:01:00,76.6,57.7,29.93,West,274,6.9,12.1,52,0.00,,,0.00,meteobridge,2013-09-24 01:01:00,
2013-09-23 18:07:00,76.5,58.1,29.93,WSW,249,8.9,14.1,53,0.00,,,0.00,meteobridge,2013-09-24 01:07:00,
2013-09-23 18:13:00,76.3,57.4,29.93,WSW,246,11.0,13.0,52,0.00,,,0.00,meteobridge,2013-09-24 01:13:00,
2013-09-23 18:19:00,76.1,57.7,29.93,WNW,302,2.9,8.9,53,0.00,,,0.00,meteobridge,2013-09-24 01:19:00,
2013-09-23 18:25:00,75.7,57.9,29.93,SW,218,4.9,11.0,54,0.00,,,0.00,meteobridge,2013-09-24 01:25:00,
2013-09-23 18:31:00,75.2,57.9,29.93,SW,219,13.0,13.0,55,0.00,,,0.00,meteobridge,2013-09-24 01:31:00,
2013-09-23 18:37:00,74.8,58.6,29.93,WSW,246,6.0,12.1,57,0.00,,,0.00,meteobridge,2013-09-24 01:37:00,
2013-09-23 18:43:00,74.1,58.8,29.93,SSW,201,2.0,12.1,59,0.00,,,0.00,meteobridge,2013-09-24 01:43:00,
2013-09-23 18:49:00,73.4,59.5,29.93,SW,218,6.9,11.0,62,0.00,,,0.00,meteobridge,2013-09-24 01:49:00,
2013-09-23 18:55:00,72.7,59.4,29.93,WSW,244,6.0,11.0,63,0.00,,,0.00,meteobridge,2013-09-24 01:55:00,
2013-09-23 19:01:00,72.3,59.5,29.93,WSW,256,6.0,10.1,64,0.00,,,0.00,meteobridge,2013-09-24 02:01:00,
2013-09-23 19:07:00,71.8,59.7,29.94,WSW,246,2.9,6.9,66,0.00,,,0.00,meteobridge,2013-09-24 02:07:00,
2013-09-23 19:13:00,71.2,59.7,29.94,SSW,213,4.0,8.9,67,0.00,,,0.00,meteobridge,2013-09-24 02:13:00,
2013-09-23 19:19:00,70.9,59.7,29.94,NNW,328,0.9,4.9,68,0.00,,,0.00,meteobridge,2013-09-24 02:19:00,
2013-09-23 19:25:00,70.3,59.7,29.94,NW,317,0.0,0.9,69,0.00,,,0.00,meteobridge,2013-09-24 02:25:00,
2013-09-23 19:31:00,69.8,59.5,29.94,NW,326,0.0,0.9,70,0.00,,,0.00,meteobridge,2013-09-24 02:31:00,
2013-09-23 19:37:00,69.4,59.5,29.94,SSW,194,0.9,4.9,71,0.00,,,0.00,meteobridge,2013-09-24 02:37:00,
2013-09-23 19:44:00,69.3,59.9,29.94,SW,231,2.9,2.9,72,0.00,,,0.00,meteobridge,2013-09-24 02:44:00,
2013-09-23 19:50:00,69.1,60.1,29.95,SW,226,6.0,10.1,73,0.00,,,0.00,meteobridge,2013-09-24 02:50:00,
2013-09-23 19:56:00,68.7,60.1,29.95,SW,230,6.0,6.9,74,0.00,,,0.00,meteobridge,2013-09-24 02:56:00,
2013-09-23 20:02:00,68.7,59.7,29.95,SSW,203,2.0,10.1,73,0.00,,,0.00,meteobridge,2013-09-24 03:02:00,
2013-09-23 20:08:00,68.7,59.7,29.95,West,267,6.9,6.9,73,0.00,,,0.00,meteobridge,2013-09-24 03:08:00,
2013-09-23 20:14:00,68.5,59.9,29.96,SW,233,4.9,11.0,74,0.00,,,0.00,meteobridge,2013-09-24 03:14:00,
2013-09-23 20:20:00,68.2,60.3,29.96,SW,233,2.0,8.1,76,0.00,,,0.00,meteobridge,2013-09-24 03:20:00,
2013-09-23 20:26:00,68.0,60.1,29.96,SW,226,6.9,8.9,76,0.00,,,0.00,meteobridge,2013-09-24 03:26:00,
2013-09-23 20:32:00,67.6,60.3,29.96,SW,229,2.0,4.0,77,0.00,,,0.00,meteobridge,2013-09-24 03:32:00,
2013-09-23 20:38:00,67.5,60.1,29.96,SSW,193,0.9,6.0,77,0.00,,,0.00,meteobridge,2013-09-24 03:38:00,
2013-09-23 20:44:00,67.1,60.1,29.96,SW,221,2.9,4.0,78,0.00,,,0.00,meteobridge,2013-09-24 03:44:00,
2013-09-23 20:50:00,66.9,60.3,29.96,SW,228,4.9,4.9,79,0.00,,,0.00,meteobridge,2013-09-24 03:50:00,
2013-09-23 20:56:00,66.6,59.9,29.97,SW,222,0.9,2.9,79,0.00,,,0.00,meteobridge,2013-09-24 03:56:00,
2013-09-23 21:02:00,66.4,60.1,29.96,SW,233,0.0,4.0,80,0.00,,,0.00,meteobridge,2013-09-24 04:02:00,
2013-09-23 21:04:00,66.4,60.1,29.96,SW,230,2.0,4.9,80,0.00,,,0.00,meteobridge,2013-09-24 04:04:00,
2013-09-23 21:06:00,66.4,60.1,29.97,West,272,2.9,6.0,80,0.00,,,0.00,meteobridge,2013-09-24 04:06:00,
2013-09-23 21:08:00,66.2,59.9,29.97,WSW,258,4.0,6.0,80,0.00,,,0.00,meteobridge,2013-09-24 04:08:00,
2013-09-23 21:10:00,66.2,60.3,29.97,WSW,257,2.9,4.9,81,0.00,,,0.00,meteobridge,2013-09-24 04:10:00,
2013-09-23 21:16:00,66.0,60.1,29.97,WSW,252,6.0,6.0,81,0.00,,,0.00,meteobridge,2013-09-24 04:16:00,
2013-09-23 21:22:00,65.8,59.9,29.97,WSW,243,2.9,4.9,81,0.00,,,0.00,meteobridge,2013-09-24 04:22:00,
2013-09-23 21:28:00,65.7,60.1,29.97,WSW,244,6.0,8.9,82,0.00,,,0.00,meteobridge,2013-09-24 04:28:00,
2013-09-23 21:34:00,65.5,59.9,29.97,West,266,2.0,4.9,82,0.00,,,0.00,meteobridge,2013-09-24 04:34:00,
2013-09-23 21:40:00,65.3,59.7,29.97,SW,221,4.9,4.9,82,0.00,,,0.00,meteobridge,2013-09-24 04:40:00,
2013-09-23 21:46:00,65.1,59.9,29.97,SW,226,6.9,6.9,83,0.00,,,0.00,meteobridge,2013-09-24 04:46:00,
2013-09-23 21:52:00,64.9,59.7,29.97,WSW,238,4.9,8.1,83,0.00,,,0.00,meteobridge,2013-09-24 04:52:00,
2013-09-23 21:58:00,64.8,59.5,29.97,WSW,245,4.9,4.9,83,0.00,,,0.00,meteobridge,2013-09-24 04:58:00,
2013-09-23 22:04:00,64.6,59.7,29.97,West,262,4.0,6.0,84,0.00,,,0.00,meteobridge,2013-09-24 05:04:00,
2013-09-23 22:10:00,64.6,59.7,29.97,SW,223,2.0,4.0,84,0.00,,,0.00,meteobridge,2013-09-24 05:10:00,
2013-09-23 22:17:00,64.4,59.5,29.97,WNW,284,0.9,4.9,84,0.00,,,0.00,meteobridge,2013-09-24 05:17:00,
2013-09-23 22:23:00,64.2,59.4,29.97,West,274,0.9,2.0,84,0.00,,,0.00,meteobridge,2013-09-24 05:23:00,
2013-09-23 22:29:00,64.2,59.4,29.97,West,268,2.9,2.9,84,0.00,,,0.00,meteobridge,2013-09-24 05:29:00,
2013-09-23 22:35:00,64.0,59.2,29.97,NW,314,0.0,0.9,84,0.00,,,0.00,meteobridge,2013-09-24 05:35:00,
2013-09-23 22:41:00,63.7,58.8,29.97,NW,314,0.0,0.0,84,0.00,,,0.00,meteobridge,2013-09-24 05:41:00,
2013-09-23 22:47:00,63.3,58.5,29.97,SW,231,0.9,2.0,84,0.00,,,0.00,meteobridge,2013-09-24 05:47:00,
2013-09-23 22:54:00,63.1,58.6,29.97,SW,226,0.0,0.9,85,0.00,,,0.00,meteobridge,2013-09-24 05:54:00,
2013-09-23 23:00:00,63.0,58.6,29.97,South,172,2.0,4.0,86,0.00,,,0.00,meteobridge,2013-09-24 06:00:00,
2013-09-23 23:06:00,63.0,58.6,29.97,SSW,197,0.0,0.9,86,0.00,,,0.00,meteobridge,2013-09-24 06:06:00,
2013-09-23 23:13:00,62.8,58.5,29.97,SSW,208,2.0,2.0,86,0.00,,,0.00,meteobridge,2013-09-24 06:13:00,
2013-09-23 23:19:00,62.8,58.5,29.97,SW,224,0.9,4.0,86,0.00,,,0.00,meteobridge,2013-09-24 06:19:00,
2013-09-23 23:25:00,62.6,58.3,29.97,East,83,0.0,0.9,86,0.00,,,0.00,meteobridge,2013-09-24 06:25:00,
2013-09-23 23:31:00,62.4,58.1,29.97,East,83,0.0,0.9,86,0.00,,,0.00,meteobridge,2013-09-24 06:31:00,
2013-09-23 23:38:00,62.1,58.1,29.96,East,83,0.0,0.0,87,0.00,,,0.00,meteobridge,2013-09-24 06:38:00,
2013-09-23 23:44:00,61.5,57.6,29.96,East,83,0.0,0.0,87,0.00,,,0.00,meteobridge,2013-09-24 06:44:00,
2013-09-23 23:50:00,61.2,57.6,29.97,East,83,0.0,0.0,88,0.00,,,0.00,meteobridge,2013-09-24 06:50:00,
2013-09-23 23:56:00,61.0,57.7,29.96,East,83,0.0,0.0,89,0.00,,,0.00,meteobridge,2013-09-24 06:56:00,